createdAt,value
2023-01-21T00:01:34.611Z,-0.280762
2023-01-21T00:04:59.870Z,-0.26062
2023-01-21T00:08:25.096Z,-0.230408
2023-01-21T00:11:50.342Z,-0.230408
2023-01-21T00:15:15.648Z,-0.250549
2023-01-21T00:18:40.874Z,-0.220337
2023-01-21T00:22:06.112Z,-0.280762
2023-01-21T00:25:31.341Z,-0.310974
2023-01-21T00:28:56.591Z,-0.310974
2023-01-21T00:32:21.899Z,-0.391541
2023-01-21T00:35:47.102Z,-0.472107
2023-01-21T00:39:12.354Z,-0.552673
2023-01-21T00:42:37.602Z,-0.492249
2023-01-21T00:46:02.862Z,-0.462036
2023-01-21T00:49:28.139Z,-0.391541
2023-01-21T00:52:53.349Z,-0.331116
2023-01-21T00:56:18.595Z,-0.441895
2023-01-21T00:59:43.861Z,-0.441895
2023-01-21T01:03:09.110Z,-0.441895
2023-01-21T01:06:34.404Z,-0.552673
2023-01-21T01:09:59.957Z,-0.552673
2023-01-21T01:13:25.222Z,-0.51239
2023-01-21T01:16:50.449Z,-0.51239
2023-01-21T01:20:16.410Z,-0.492249
2023-01-21T01:23:41.376Z,-0.472107
2023-01-21T01:27:06.584Z,-0.552673
2023-01-21T01:30:31.840Z,-0.572815
2023-01-21T01:33:57.081Z,-0.572815
2023-01-21T01:37:22.352Z,-0.623169
2023-01-21T01:40:47.639Z,-0.703735
2023-01-21T01:44:12.863Z,-0.794373
2023-01-21T01:47:38.102Z,-0.935364
2023-01-21T01:51:03.492Z,-1.005859
2023-01-21T01:54:28.619Z,-1.086426
2023-01-21T01:57:53.874Z,-1.116638
2023-01-21T02:01:19.093Z,-1.247559
2023-01-21T02:04:44.369Z,-1.328125
2023-01-21T02:08:09.586Z,-1.348267
2023-01-21T02:11:34.827Z,-1.2677
2023-01-21T02:15:00.116Z,-1.297913
2023-01-21T02:18:25.345Z,-1.146851
2023-01-21T02:21:50.580Z,-1.096497
2023-01-21T02:25:15.834Z,-1.227417
2023-01-21T02:28:41.075Z,-1.408691
2023-01-21T02:32:06.339Z,-1.398621
2023-01-21T02:35:31.539Z,-1.459045
2023-01-21T02:38:56.786Z,-1.459045
2023-01-21T02:42:22.033Z,-1.297913
2023-01-21T02:45:47.275Z,-1.156921
2023-01-21T02:49:12.543Z,-1.247559
2023-01-21T02:52:37.752Z,-1.398621
2023-01-21T02:56:02.991Z,-1.559753
2023-01-21T02:59:28.257Z,-1.559753
2023-01-21T03:02:53.505Z,-1.589966
2023-01-21T03:06:18.774Z,-1.489258
2023-01-21T03:09:44.005Z,-1.328125
2023-01-21T03:13:09.254Z,-1.328125
2023-01-21T03:16:34.557Z,-1.368408
2023-01-21T03:19:59.745Z,-1.307983
2023-01-21T03:23:25.021Z,-1.328125
2023-01-21T03:26:50.220Z,-1.227417
2023-01-21T03:30:15.795Z,-1.2677
2023-01-21T03:33:40.730Z,-1.378479
2023-01-21T03:37:05.970Z,-1.51947
2023-01-21T03:40:31.235Z,-1.579895
2023-01-21T03:43:56.472Z,-1.549683
2023-01-21T03:47:21.726Z,-1.579895
2023-01-21T03:50:46.998Z,-1.620178
2023-01-21T03:54:12.213Z,-1.64032
2023-01-21T03:57:37.486Z,-1.670532
2023-01-21T04:01:02.778Z,-1.559753
2023-01-21T04:04:27.968Z,-1.610107
2023-01-21T04:07:53.188Z,-1.610107
2023-01-21T04:11:18.424Z,-1.610107
2023-01-21T04:14:43.694Z,-1.660461
2023-01-21T04:18:08.923Z,-1.589966
2023-01-21T04:21:34.157Z,-1.549683
2023-01-21T04:24:59.403Z,-1.51947
2023-01-21T04:28:24.667Z,-1.579895
2023-01-21T04:31:49.990Z,-1.620178
2023-01-21T04:35:15.173Z,-1.700745
2023-01-21T04:38:40.437Z,-1.660461
2023-01-21T04:42:05.659Z,-1.690674
2023-01-21T04:45:30.903Z,-1.77124
2023-01-21T04:48:56.181Z,-1.871948
2023-01-21T04:52:21.419Z,-1.882019
2023-01-21T04:55:46.664Z,-1.922302
2023-01-21T04:59:11.911Z,-1.912231
2023-01-21T05:02:37.248Z,-1.942444
2023-01-21T05:06:02.452Z,-2.053223
2023-01-21T05:09:27.663Z,-2.103577
2023-01-21T05:12:52.903Z,-2.093506
2023-01-21T05:16:18.196Z,-1.942444
2023-01-21T05:19:43.430Z,-2.033081
2023-01-21T05:23:08.689Z,-2.063293
2023-01-21T05:26:33.900Z,-2.063293
2023-01-21T05:29:59.156Z,-2.063293
2023-01-21T05:33:24.407Z,-1.972656
2023-01-21T05:36:49.631Z,-1.952515
2023-01-21T05:40:15.172Z,-1.952515
2023-01-21T05:43:40.143Z,-1.851807
2023-01-21T05:47:05.383Z,-1.851807
2023-01-21T05:50:30.611Z,-1.77124
2023-01-21T05:53:55.855Z,-1.791382
2023-01-21T05:57:21.130Z,-1.882019
2023-01-21T06:00:46.340Z,-1.982727
2023-01-21T06:04:11.591Z,-2.133789
2023-01-21T06:07:36.844Z,-2.153931
2023-01-21T06:11:02.079Z,-2.02301
2023-01-21T06:14:27.350Z,-2.093506
2023-01-21T06:17:52.552Z,-2.244568
2023-01-21T06:21:17.787Z,-2.365417
2023-01-21T06:24:43.062Z,-2.425842
2023-01-21T06:28:08.286Z,-2.39563
2023-01-21T06:31:33.605Z,-2.697754
2023-01-21T06:34:58.765Z,-2.727966
2023-01-21T06:38:24.014Z,-2.838745
2023-01-21T06:41:49.253Z,-2.727966
2023-01-21T06:45:14.492Z,-2.727966
2023-01-21T06:48:39.877Z,-2.848816
2023-01-21T06:52:05.101Z,-2.818604
2023-01-21T06:55:30.339Z,-2.919312
2023-01-21T06:58:55.587Z,-2.889099
2023-01-21T07:02:20.988Z,-2.919312
2023-01-21T07:05:46.389Z,-3.03009
2023-01-21T07:09:11.711Z,-3.060303
2023-01-21T07:12:37.090Z,-3.060303
2023-01-21T07:16:03.639Z,-3.02002
2023-01-21T07:19:27.927Z,-3.120728
2023-01-21T07:22:53.264Z,-3.27179
2023-01-21T07:26:18.589Z,-3.120728
2023-01-21T07:29:43.959Z,-3.090515
2023-01-21T07:33:09.309Z,-3.03009
2023-01-21T07:36:34.751Z,-3.050232
2023-01-21T07:40:00.061Z,-3.171082
2023-01-21T07:43:25.320Z,-3.140869
2023-01-21T07:46:50.785Z,-3.181152
2023-01-21T07:50:15.990Z,-3.100586
2023-01-21T07:53:41.602Z,-3.140869
2023-01-21T07:57:06.940Z,-3.050232
2023-01-21T08:00:32.672Z,-3.070374
2023-01-21T08:03:58.077Z,-3.050232
2023-01-21T08:07:23.340Z,-2.919312
2023-01-21T08:10:48.581Z,-2.969666
2023-01-21T08:14:13.923Z,-2.919312
2023-01-21T08:17:39.135Z,-3.050232
2023-01-21T08:21:04.391Z,-3.070374
2023-01-21T08:24:29.650Z,-3.100586
2023-01-21T08:27:54.931Z,-2.909241
2023-01-21T08:31:20.251Z,-2.848816
2023-01-21T08:34:45.440Z,-2.969666
2023-01-21T08:38:10.701Z,-2.999878
2023-01-21T08:41:36.008Z,-2.818604
2023-01-21T08:45:01.279Z,-2.677612
2023-01-21T08:48:26.636Z,-2.637329
2023-01-21T08:51:51.965Z,-2.576904
2023-01-21T08:55:17.630Z,-2.516479
2023-01-21T08:58:42.700Z,-2.456055
2023-01-21T09:02:08.168Z,-2.486267
2023-01-21T09:05:33.473Z,-2.476196
2023-01-21T09:08:58.724Z,-2.607117
2023-01-21T09:12:25.963Z,-2.546692
2023-01-21T09:15:51.107Z,-2.365417
2023-01-21T09:19:16.395Z,-2.164001
2023-01-21T09:22:41.729Z,-2.053223
2023-01-21T09:26:07.016Z,-1.972656
2023-01-21T09:29:32.281Z,-1.952515
2023-01-21T09:32:57.563Z,-2.093506
2023-01-21T09:36:23.475Z,-2.153931
2023-01-21T09:39:49.238Z,-2.053223
2023-01-21T09:43:13.972Z,-2.123718
2023-01-21T09:46:39.210Z,-2.184143
2023-01-21T09:50:04.542Z,-2.053223
2023-01-21T09:53:29.746Z,-2.083435
2023-01-21T09:56:55.009Z,-2.063293
2023-01-21T10:00:20.280Z,-2.133789
2023-01-21T10:03:45.523Z,-2.093506
2023-01-21T10:07:10.798Z,-2.083435
2023-01-21T10:10:36.147Z,-2.053223
2023-01-21T10:14:01.522Z,-1.972656
2023-01-21T10:17:26.808Z,-1.942444
2023-01-21T10:20:52.249Z,-1.761169
2023-01-21T10:24:17.609Z,-1.690674
2023-01-21T10:27:42.940Z,-1.589966
2023-01-21T10:31:08.349Z,-1.448975
2023-01-21T10:34:33.536Z,-1.328125
2023-01-21T10:37:58.912Z,-1.338196
2023-01-21T10:41:24.231Z,-1.448975
2023-01-21T10:44:50.297Z,-1.408691
2023-01-21T10:48:15.916Z,-1.459045
2023-01-21T10:51:41.140Z,-1.398621
2023-01-21T10:55:06.398Z,-1.489258
2023-01-21T10:58:31.694Z,-1.610107
2023-01-21T11:01:56.984Z,-1.620178
2023-01-21T11:05:22.326Z,-1.851807
2023-01-21T11:08:47.600Z,-1.851807
2023-01-21T11:12:12.970Z,-1.700745
2023-01-21T11:15:38.464Z,-1.741028
2023-01-21T11:19:03.900Z,-1.761169
2023-01-21T11:22:29.224Z,-1.690674
2023-01-21T11:25:55.333Z,-1.741028
2023-01-21T11:29:21.109Z,-1.670532
2023-01-21T11:32:46.456Z,-1.579895
2023-01-21T11:36:11.772Z,-1.559753
2023-01-21T11:39:37.118Z,-1.620178
2023-01-21T11:43:02.420Z,-1.700745
2023-01-21T11:46:27.858Z,-1.660461
2023-01-21T11:49:53.177Z,-1.64032
2023-01-21T11:53:18.533Z,-1.589966
2023-01-21T11:56:43.833Z,-1.579895
2023-01-21T12:00:09.127Z,-1.579895
2023-01-21T12:03:34.524Z,-1.549683
2023-01-21T12:06:59.746Z,-1.448975
2023-01-21T12:10:25.089Z,-1.428833
2023-01-21T12:13:50.516Z,-1.378479
2023-01-21T12:17:15.893Z,-1.378479
2023-01-21T12:20:41.458Z,-1.328125
2023-01-21T12:24:06.908Z,-1.338196
2023-01-21T12:27:32.363Z,-1.398621
2023-01-21T12:30:57.975Z,-1.247559
2023-01-21T12:34:23.204Z,-1.086426
2023-01-21T12:37:48.602Z,-1.066284
2023-01-21T12:41:13.892Z,-1.086426
2023-01-21T12:44:39.293Z,-1.036072
2023-01-21T12:48:04.710Z,-1.227417
2023-01-21T12:51:29.988Z,-1.307983
2023-01-21T12:54:55.325Z,-1.378479
2023-01-21T12:58:20.781Z,-1.297913
2023-01-21T13:01:46.236Z,-1.368408
2023-01-21T13:05:11.471Z,-1.51947
2023-01-21T13:08:36.811Z,-1.539612
2023-01-21T13:12:02.141Z,-1.479187
2023-01-21T13:15:27.457Z,-1.51947
2023-01-21T13:18:52.837Z,-1.428833
2023-01-21T13:22:18.280Z,-1.378479
2023-01-21T13:25:43.705Z,-1.549683
2023-01-21T13:29:09.252Z,-1.589966
2023-01-21T13:32:34.875Z,-1.51947
2023-01-21T13:36:00.369Z,-1.428833
2023-01-21T13:39:25.752Z,-1.348267
2023-01-21T13:42:51.212Z,-1.328125
2023-01-21T13:46:16.595Z,-1.2677
2023-01-21T13:49:42.098Z,-1.227417
2023-01-21T13:53:08.442Z,-1.368408
2023-01-21T13:56:35.121Z,-1.448975
2023-01-21T14:00:07.309Z,-1.489258
2023-01-21T14:03:33.602Z,-1.448975
2023-01-21T14:06:59.003Z,-1.408691
2023-01-21T14:10:28.355Z,-1.348267
2023-01-21T14:13:53.880Z,-1.368408
2023-01-21T14:17:20.677Z,-1.247559
2023-01-21T14:20:46.127Z,-1.348267
2023-01-21T14:24:11.528Z,-1.448975
2023-01-21T14:27:36.887Z,-1.398621
2023-01-21T14:31:02.332Z,-1.378479
2023-01-21T15:05:03.357Z,-1.126709
2023-01-21T15:08:28.631Z,-1.086426
2023-01-21T15:11:53.923Z,-1.126709
2023-01-21T15:15:19.679Z,-1.116638
2023-01-21T15:18:44.555Z,-1.146851
2023-01-21T15:22:09.888Z,-1.187134
2023-01-21T15:25:35.171Z,-1.156921
2023-01-21T15:29:00.402Z,-1.116638
2023-01-21T15:32:25.675Z,-1.01593
2023-01-21T15:35:51.008Z,-0.935364
2023-01-21T15:39:16.371Z,-0.824585
2023-01-21T15:42:41.610Z,-0.905151
2023-01-21T15:46:06.998Z,-0.945435
2023-01-21T15:49:32.285Z,-1.01593
2023-01-21T15:52:57.562Z,-1.01593
2023-01-21T15:56:22.897Z,-0.965576
2023-01-21T15:59:48.177Z,-0.945435
2023-01-21T16:03:13.417Z,-0.945435
2023-01-21T16:06:38.739Z,-0.824585
2023-01-21T16:10:04.132Z,-0.864868
2023-01-21T16:13:29.474Z,-0.794373
2023-01-21T16:16:54.684Z,-0.723877
2023-01-21T16:20:19.971Z,-0.733948
2023-01-21T16:23:45.273Z,-0.693665
2023-01-21T16:27:10.579Z,-0.673523
2023-01-21T16:30:35.943Z,-0.643311
2023-01-21T16:34:01.177Z,-0.613098
2023-01-21T16:37:26.547Z,-0.693665
2023-01-21T16:40:51.834Z,-0.572815
2023-01-21T16:44:17.076Z,-0.492249
2023-01-21T16:47:42.398Z,-0.441895
2023-01-21T16:51:07.677Z,-0.401611
2023-01-21T16:54:32.923Z,-0.310974
2023-01-21T16:57:58.256Z,-0.310974
2023-01-21T17:01:23.633Z,-0.331116
2023-01-21T17:04:48.849Z,-0.310974
2023-01-21T17:08:14.106Z,-0.280762
2023-01-21T17:11:39.447Z,-0.371399
2023-01-21T17:15:04.731Z,-0.371399
2023-01-21T17:18:30.341Z,-0.341187
2023-01-21T17:21:55.660Z,-0.431824
2023-01-21T17:25:20.919Z,-0.341187
2023-01-21T17:28:46.322Z,-0.280762
2023-01-21T17:32:11.800Z,-0.190125
2023-01-21T17:35:37.064Z,-0.310974
2023-01-21T17:39:02.531Z,-0.431824
2023-01-21T17:42:27.847Z,-0.431824
2023-01-21T17:45:53.130Z,-0.431824
2023-01-21T17:49:18.443Z,-0.431824
2023-01-21T17:52:43.681Z,-0.401611
2023-01-21T17:56:09.712Z,-0.331116
2023-01-21T17:59:35.777Z,-0.230408
2023-01-21T18:03:01.314Z,-0.280762
2023-01-21T18:06:26.623Z,-0.250549
2023-01-21T18:09:51.997Z,-0.26062
2023-01-21T18:13:17.327Z,-0.250549
2023-01-21T18:16:42.556Z,-0.341187
2023-01-21T18:20:07.829Z,-0.431824
2023-01-21T18:23:33.106Z,-0.51239
2023-01-21T18:26:58.338Z,-0.572815
2023-01-21T18:30:23.668Z,-0.492249
2023-01-21T18:33:48.982Z,-0.391541
2023-01-21T18:37:14.214Z,-0.341187
2023-01-21T18:40:39.456Z,-0.250549
2023-01-21T18:44:04.761Z,-0.190125
2023-01-21T18:47:30.065Z,-0.210266
2023-01-21T18:50:55.403Z,-0.159912
2023-01-21T18:54:20.565Z,-0.180054
2023-01-21T18:57:45.842Z,-0.109558
2023-01-21T19:01:22.389Z,-0.099487
2023-01-21T19:04:36.485Z,-0.069275
2023-01-21T19:08:01.748Z,-0.039062
2023-01-21T19:11:26.997Z,0.031433
2023-01-21T19:14:52.273Z,-0.069275
2023-01-21T19:18:17.579Z,-0.028992
2023-01-21T19:21:42.890Z,-0.220337
2023-01-21T19:25:08.094Z,-0.159912
2023-01-21T19:28:33.402Z,-0.159912
2023-01-21T19:31:58.739Z,-0.149841
2023-01-21T19:35:23.978Z,-0.109558
2023-01-21T19:38:49.477Z,-0.079346
2023-01-21T19:42:14.694Z,-0.109558
2023-01-21T19:45:39.954Z,-0.069275
2023-01-21T19:49:05.249Z,-0.069275
2023-01-21T19:52:30.543Z,-0.099487
2023-01-21T19:55:55.934Z,-0.109558
2023-01-21T19:59:21.209Z,-0.149841
2023-01-21T20:02:46.516Z,-0.190125
2023-01-21T20:06:11.813Z,-0.109558
2023-01-21T20:09:37.118Z,-0.180054
2023-01-21T20:13:02.485Z,-0.210266
2023-01-21T20:16:27.852Z,-0.159912
2023-01-21T20:19:53.085Z,-0.149841
2023-01-21T20:23:18.416Z,-0.099487
2023-01-21T20:26:43.808Z,0.001221
2023-01-21T20:30:27.059Z,-0.049133
2023-01-21T20:33:34.448Z,-0.149841
2023-01-21T20:36:59.771Z,-0.159912
2023-01-21T20:40:25.113Z,-0.109558
2023-01-21T20:43:50.529Z,-0.139771
2023-01-21T20:47:16.754Z,-0.341187
2023-01-21T20:50:41.259Z,-0.230408
2023-01-21T20:54:06.689Z,-0.149841
2023-01-21T20:57:32.164Z,-0.250549
2023-01-21T21:00:57.543Z,-0.280762
2023-01-21T21:04:22.931Z,-0.250549
2023-01-21T21:07:48.207Z,-0.210266
2023-01-21T21:11:13.455Z,-0.180054
2023-01-21T21:14:38.732Z,-0.180054
2023-01-21T21:18:04.123Z,-0.230408
2023-01-21T21:21:29.422Z,-0.220337
2023-01-21T21:24:54.685Z,-0.149841
2023-01-21T21:28:19.959Z,-0.099487
2023-01-21T21:31:45.305Z,-0.039062
2023-01-21T21:35:10.511Z,-0.210266
2023-01-21T21:38:35.840Z,-0.220337
2023-01-21T21:42:01.062Z,-0.149841
2023-01-21T21:45:26.311Z,-0.039062
2023-01-21T21:48:51.555Z,-0.099487
2023-01-21T21:52:16.820Z,-0.028992
2023-01-21T21:55:42.134Z,0.001221
2023-01-21T21:59:07.359Z,-0.109558
2023-01-21T22:02:32.656Z,-0.099487
2023-01-21T22:05:57.880Z,-0.139771
2023-01-21T22:09:23.139Z,-0.180054
2023-01-21T22:12:48.447Z,-0.290833
2023-01-21T22:16:13.676Z,-0.230408
2023-01-21T22:19:38.926Z,-0.149841
2023-01-21T22:23:04.177Z,-0.149841
2023-01-21T22:26:29.484Z,-0.159912
2023-01-21T22:29:54.787Z,-0.159912
2023-01-21T22:33:20.028Z,-0.099487
2023-01-21T22:36:45.292Z,-0.109558
2023-01-21T22:40:10.566Z,-0.039062
2023-01-21T22:43:35.884Z,0.132141
2023-01-21T22:47:01.167Z,0.212708
2023-01-21T22:50:26.412Z,0.182495
2023-01-21T22:53:51.668Z,0.041504
2023-01-21T22:57:16.973Z,0.112
2023-01-21T23:00:42.212Z,0.172424
2023-01-21T23:04:07.507Z,0.152283
2023-01-21T23:07:32.733Z,0.071716
2023-01-21T23:10:57.996Z,-0.069275
2023-01-21T23:14:23.271Z,-0.109558
2023-01-21T23:17:48.531Z,-0.190125
2023-01-21T23:21:13.805Z,-0.180054
2023-01-21T23:24:39.031Z,-0.159912
2023-01-21T23:28:04.353Z,-0.190125
2023-01-21T23:31:29.705Z,-0.109558
2023-01-21T23:34:54.855Z,-0.079346
2023-01-21T23:38:20.225Z,-0.079346
2023-01-21T23:41:45.491Z,-0.180054
2023-01-21T23:45:10.768Z,-0.149841
2023-01-21T23:48:36.094Z,-0.341187
2023-01-21T23:52:01.317Z,-0.421753
2023-01-21T23:55:26.619Z,-0.401611
2023-01-21T23:58:51.832Z,-0.401611
